Nashville, Tennessee
Traffic Map
Current Weather Conditions
Nashville, Tennessee
Few Clouds
Few Clouds
13°
Feels Like: 13°
Wind Chill: 13° Ceiling: Unl
Heat Index: 13° Visibility: 10mi
Dew Point: Wind: 9mph
Humidity: 57% Direction: 90° (E)
Pressure: 30.23in Gusts: 0mph
Raw Report DataKBNA 231553Z 09008KT 10SM FEW230 13/05 A3023 RMK AO2 SLP235 T01330050
Traffic Incident Summary
Active as of:
Severity:
Category:
InformationThere was an issue retrieving the traffic information for this location. Please try a different location or try again shortly.
Advertisements
Track Severe Weather on mobile